sensor_id;sensor_type;location;lat;lon;timestamp;temperature;humidity
43772;HTU21D;59066;54.782;32.024;2022-10-31T00:04:05;2.21;74.89
43772;HTU21D;59066;54.782;32.024;2022-10-31T00:06:32;2.19;74.67
43772;HTU21D;59066;54.782;32.024;2022-10-31T00:09:02;2.24;75.08
43772;HTU21D;59066;54.782;32.024;2022-10-31T00:11:30;2.15;74.86
43772;HTU21D;59066;54.782;32.024;2022-10-31T00:13:58;2.13;74.38
43772;HTU21D;59066;54.782;32.024;2022-10-31T00:16:27;2.11;74.67
43772;HTU21D;59066;54.782;32.024;2022-10-31T00:18:57;2.08;75.02
43772;HTU21D;59066;54.782;32.024;2022-10-31T00:21:25;2.05;74.86
43772;HTU21D;59066;54.782;32.024;2022-10-31T00:23:53;2.03;75.51
43772;HTU21D;59066;54.782;32.024;2022-10-31T00:26:20;1.97;75.83
43772;HTU21D;59066;54.782;32.024;2022-10-31T00:28:48;1.98;75.70
43772;HTU21D;59066;54.782;32.024;2022-10-31T00:31:16;1.93;75.96
43772;HTU21D;59066;54.782;32.024;2022-10-31T00:33:44;1.95;76.05
43772;HTU21D;59066;54.782;32.024;2022-10-31T00:36:14;1.94;76.21
43772;HTU21D;59066;54.782;32.024;2022-10-31T00:38:42;1.88;76.38
43772;HTU21D;59066;54.782;32.024;2022-10-31T00:41:11;1.91;76.46
43772;HTU21D;59066;54.782;32.024;2022-10-31T00:43:41;1.91;76.72
43772;HTU21D;59066;54.782;32.024;2022-10-31T00:46:09;1.88;76.75
43772;HTU21D;59066;54.782;32.024;2022-10-31T00:48:37;1.88;76.88
43772;HTU21D;59066;54.782;32.024;2022-10-31T00:51:04;1.88;76.65
43772;HTU21D;59066;54.782;32.024;2022-10-31T00:53:32;1.87;76.32
43772;HTU21D;59066;54.782;32.024;2022-10-31T00:55:59;1.88;76.80
43772;HTU21D;59066;54.782;32.024;2022-10-31T00:58:27;1.88;76.83
43772;HTU21D;59066;54.782;32.024;2022-10-31T01:00:55;1.85;76.37
43772;HTU21D;59066;54.782;32.024;2022-10-31T01:03:24;1.84;76.58
43772;HTU21D;59066;54.782;32.024;2022-10-31T01:06:09;1.82;76.86
43772;HTU21D;59066;54.782;32.024;2022-10-31T01:08:38;1.80;77.25
43772;HTU21D;59066;54.782;32.024;2022-10-31T01:11:10;1.77;76.92
43772;HTU21D;59066;54.782;32.024;2022-10-31T01:13:39;1.76;76.53
43772;HTU21D;59066;54.782;32.024;2022-10-31T01:16:08;1.75;76.79
43772;HTU21D;59066;54.782;32.024;2022-10-31T01:18:37;1.68;77.06
43772;HTU21D;59066;54.782;32.024;2022-10-31T01:21:17;1.68;77.56
43772;HTU21D;59066;54.782;32.024;2022-10-31T01:23:44;1.68;77.92
43772;HTU21D;59066;54.782;32.024;2022-10-31T01:26:21;1.66;78.28
43772;HTU21D;59066;54.782;32.024;2022-10-31T01:28:56;1.65;77.63
43772;HTU21D;59066;54.782;32.024;2022-10-31T01:31:29;1.63;77.64
43772;HTU21D;59066;54.782;32.024;2022-10-31T01:33:57;1.63;77.82
43772;HTU21D;59066;54.782;32.024;2022-10-31T01:36:30;1.67;77.94
43772;HTU21D;59066;54.782;32.024;2022-10-31T01:39:10;1.62;78.43
43772;HTU21D;59066;54.782;32.024;2022-10-31T01:41:41;1.64;78.46
43772;HTU21D;59066;54.782;32.024;2022-10-31T01:49:43;1.64;78.43
43772;HTU21D;59066;54.782;32.024;2022-10-31T01:55:30;1.60;78.56
43772;HTU21D;59066;54.782;32.024;2022-10-31T01:58:03;1.60;77.96
43772;HTU21D;59066;54.782;32.024;2022-10-31T02:00:32;1.62;78.47
43772;HTU21D;59066;54.782;32.024;2022-10-31T02:03:00;1.56;78.63
43772;HTU21D;59066;54.782;32.024;2022-10-31T02:05:34;1.55;78.88
43772;HTU21D;59066;54.782;32.024;2022-10-31T02:10:36;1.57;78.76
43772;HTU21D;59066;54.782;32.024;2022-10-31T02:13:07;1.56;78.98
43772;HTU21D;59066;54.782;32.024;2022-10-31T02:15:44;1.55;79.00
43772;HTU21D;59066;54.782;32.024;2022-10-31T02:18:12;1.62;79.05
43772;HTU21D;59066;54.782;32.024;2022-10-31T02:21:01;1.56;78.68
43772;HTU21D;59066;54.782;32.024;2022-10-31T02:32:27;1.55;79.24
43772;HTU21D;59066;54.782;32.024;2022-10-31T02:35:07;1.52;79.28
43772;HTU21D;59066;54.782;32.024;2022-10-31T02:40:27;1.51;79.08
43772;HTU21D;59066;54.782;32.024;2022-10-31T02:46:29;1.46;79.68
43772;HTU21D;59066;54.782;32.024;2022-10-31T02:49:08;1.46;79.27
43772;HTU21D;59066;54.782;32.024;2022-10-31T02:51:39;1.48;79.43
43772;HTU21D;59066;54.782;32.024;2022-10-31T02:54:18;1.46;79.71
43772;HTU21D;59066;54.782;32.024;2022-10-31T02:56:50;1.47;79.43
43772;HTU21D;59066;54.782;32.024;2022-10-31T02:59:20;1.48;79.74
43772;HTU21D;59066;54.782;32.024;2022-10-31T03:08:12;1.55;79.85
43772;HTU21D;59066;54.782;32.024;2022-10-31T03:10:59;1.58;79.69
43772;HTU21D;59066;54.782;32.024;2022-10-31T03:16:18;1.53;79.72
43772;HTU21D;59066;54.782;32.024;2022-10-31T03:18:54;1.55;79.40
43772;HTU21D;59066;54.782;32.024;2022-10-31T03:21:25;1.57;79.60
43772;HTU21D;59066;54.782;32.024;2022-10-31T03:23:54;1.56;79.27
43772;HTU21D;59066;54.782;32.024;2022-10-31T03:26:24;1.56;79.78
43772;HTU21D;59066;54.782;32.024;2022-10-31T03:31:29;1.55;79.34
43772;HTU21D;59066;54.782;32.024;2022-10-31T03:34:00;1.55;79.65
43772;HTU21D;59066;54.782;32.024;2022-10-31T03:36:32;1.57;79.77
43772;HTU21D;59066;54.782;32.024;2022-10-31T03:39:04;1.55;79.66
43772;HTU21D;59066;54.782;32.024;2022-10-31T03:41:34;1.56;79.64
43772;HTU21D;59066;54.782;32.024;2022-10-31T03:44:16;1.58;79.68
43772;HTU21D;59066;54.782;32.024;2022-10-31T03:46:51;1.56;79.34
43772;HTU21D;59066;54.782;32.024;2022-10-31T03:49:20;1.55;79.85
43772;HTU21D;59066;54.782;32.024;2022-10-31T03:54:54;1.61;79.82
43772;HTU21D;59066;54.782;32.024;2022-10-31T03:57:35;1.57;79.72
43772;HTU21D;59066;54.782;32.024;2022-10-31T04:00:12;1.65;79.98
43772;HTU21D;59066;54.782;32.024;2022-10-31T04:05:31;1.66;79.88
43772;HTU21D;59066;54.782;32.024;2022-10-31T04:08:03;1.64;79.75
43772;HTU21D;59066;54.782;32.024;2022-10-31T04:10:32;1.68;79.49
43772;HTU21D;59066;54.782;32.024;2022-10-31T04:13:04;1.69;79.53
43772;HTU21D;59066;54.782;32.024;2022-10-31T04:15:41;1.68;79.37
43772;HTU21D;59066;54.782;32.024;2022-10-31T04:18:10;1.65;79.74
43772;HTU21D;59066;54.782;32.024;2022-10-31T04:20:39;1.68;79.73
43772;HTU21D;59066;54.782;32.024;2022-10-31T04:23:24;1.62;79.80
43772;HTU21D;59066;54.782;32.024;2022-10-31T04:25:52;1.62;79.69
43772;HTU21D;59066;54.782;32.024;2022-10-31T04:28:20;1.61;79.94
43772;HTU21D;59066;54.782;32.024;2022-10-31T04:30:54;1.61;79.43
43772;HTU21D;59066;54.782;32.024;2022-10-31T04:33:23;1.62;79.63
43772;HTU21D;59066;54.782;32.024;2022-10-31T04:35:50;1.61;79.78
43772;HTU21D;59066;54.782;32.024;2022-10-31T04:38:17;1.61;79.64
43772;HTU21D;59066;54.782;32.024;2022-10-31T04:40:45;1.63;79.75
43772;HTU21D;59066;54.782;32.024;2022-10-31T04:43:39;1.62;79.68
43772;HTU21D;59066;54.782;32.024;2022-10-31T04:46:06;1.60;79.62
43772;HTU21D;59066;54.782;32.024;2022-10-31T04:48:34;1.58;79.95
43772;HTU21D;59066;54.782;32.024;2022-10-31T04:51:04;1.62;79.51
43772;HTU21D;59066;54.782;32.024;2022-10-31T04:53:32;1.61;79.09
43772;HTU21D;59066;54.782;32.024;2022-10-31T04:56:23;1.61;79.47
43772;HTU21D;59066;54.782;32.024;2022-10-31T04:58:56;1.66;79.75
43772;HTU21D;59066;54.782;32.024;2022-10-31T05:01:24;1.62;79.85
43772;HTU21D;59066;54.782;32.024;2022-10-31T05:03:52;1.62;79.85
43772;HTU21D;59066;54.782;32.024;2022-10-31T05:06:19;1.64;80.02
43772;HTU21D;59066;54.782;32.024;2022-10-31T05:08:46;1.68;79.88
43772;HTU21D;59066;54.782;32.024;2022-10-31T05:11:20;1.62;79.99
43772;HTU21D;59066;54.782;32.024;2022-10-31T05:13:47;1.63;79.78
43772;HTU21D;59066;54.782;32.024;2022-10-31T05:16:44;1.64;79.73
43772;HTU21D;59066;54.782;32.024;2022-10-31T05:19:31;1.64;79.19
43772;HTU21D;59066;54.782;32.024;2022-10-31T05:22:18;1.63;79.48
43772;HTU21D;59066;54.782;32.024;2022-10-31T05:24:45;1.64;79.69
43772;HTU21D;59066;54.782;32.024;2022-10-31T05:27:13;1.66;79.82
43772;HTU21D;59066;54.782;32.024;2022-10-31T05:29:41;1.67;79.85
43772;HTU21D;59066;54.782;32.024;2022-10-31T05:32:08;1.70;79.47
43772;HTU21D;59066;54.782;32.024;2022-10-31T05:34:56;1.72;79.89
43772;HTU21D;59066;54.782;32.024;2022-10-31T05:37:43;1.75;79.62
43772;HTU21D;59066;54.782;32.024;2022-10-31T05:40:13;1.83;79.63
43772;HTU21D;59066;54.782;32.024;2022-10-31T05:42:43;1.85;79.69
43772;HTU21D;59066;54.782;32.024;2022-10-31T05:45:14;1.82;79.79
43772;HTU21D;59066;54.782;32.024;2022-10-31T05:47:55;1.87;79.59
43772;HTU21D;59066;54.782;32.024;2022-10-31T05:50:41;1.93;79.26
43772;HTU21D;59066;54.782;32.024;2022-10-31T05:53:10;1.97;79.32
43772;HTU21D;59066;54.782;32.024;2022-10-31T05:55:37;2.01;79.19
43772;HTU21D;59066;54.782;32.024;2022-10-31T05:58:11;2.06;79.03
43772;HTU21D;59066;54.782;32.024;2022-10-31T06:00:43;2.12;78.74
43772;HTU21D;59066;54.782;32.024;2022-10-31T06:03:11;2.16;78.88
43772;HTU21D;59066;54.782;32.024;2022-10-31T06:05:59;2.27;78.78
43772;HTU21D;59066;54.782;32.024;2022-10-31T06:08:32;2.31;78.97
43772;HTU21D;59066;54.782;32.024;2022-10-31T06:11:04;2.36;78.62
43772;HTU21D;59066;54.782;32.024;2022-10-31T06:13:50;2.36;78.28
43772;HTU21D;59066;54.782;32.024;2022-10-31T06:16:24;2.38;78.05
43772;HTU21D;59066;54.782;32.024;2022-10-31T06:18:55;2.42;78.15
43772;HTU21D;59066;54.782;32.024;2022-10-31T06:21:22;2.45;77.74
43772;HTU21D;59066;54.782;32.024;2022-10-31T06:23:50;2.43;77.60
43772;HTU21D;59066;54.782;32.024;2022-10-31T06:26:30;2.44;77.02
43772;HTU21D;59066;54.782;32.024;2022-10-31T06:28:58;2.49;77.20
43772;HTU21D;59066;54.782;32.024;2022-10-31T06:31:45;2.51;76.96
43772;HTU21D;59066;54.782;32.024;2022-10-31T06:34:12;2.58;77.02
43772;HTU21D;59066;54.782;32.024;2022-10-31T06:36:41;2.59;76.50
43772;HTU21D;59066;54.782;32.024;2022-10-31T06:39:08;2.62;76.33
43772;HTU21D;59066;54.782;32.024;2022-10-31T06:41:35;2.66;76.28
43772;HTU21D;59066;54.782;32.024;2022-10-31T06:44:04;2.69;76.25
43772;HTU21D;59066;54.782;32.024;2022-10-31T06:46:46;2.75;75.95
43772;HTU21D;59066;54.782;32.024;2022-10-31T06:49:33;2.74;75.33
43772;HTU21D;59066;54.782;32.024;2022-10-31T06:52:02;2.70;75.22
43772;HTU21D;59066;54.782;32.024;2022-10-31T06:54:31;2.73;75.58
43772;HTU21D;59066;54.782;32.024;2022-10-31T06:56:58;2.75;75.03
43772;HTU21D;59066;54.782;32.024;2022-10-31T06:59:26;2.78;74.62
43772;HTU21D;59066;54.782;32.024;2022-10-31T07:02:12;2.76;74.47
43772;HTU21D;59066;54.782;32.024;2022-10-31T07:04:42;2.75;74.38
43772;HTU21D;59066;54.782;32.024;2022-10-31T07:07:12;2.80;74.37
43772;HTU21D;59066;54.782;32.024;2022-10-31T07:09:40;2.78;74.27
43772;HTU21D;59066;54.782;32.024;2022-10-31T07:12:09;2.83;73.93
43772;HTU21D;59066;54.782;32.024;2022-10-31T07:14:42;2.95;74.14
43772;HTU21D;59066;54.782;32.024;2022-10-31T07:17:10;2.99;74.31
43772;HTU21D;59066;54.782;32.024;2022-10-31T07:19:40;2.98;74.18
43772;HTU21D;59066;54.782;32.024;2022-10-31T07:22:09;3.03;73.85
43772;HTU21D;59066;54.782;32.024;2022-10-31T07:24:37;3.10;73.73
43772;HTU21D;59066;54.782;32.024;2022-10-31T07:27:24;3.20;73.90
43772;HTU21D;59066;54.782;32.024;2022-10-31T07:29:51;3.27;73.66
43772;HTU21D;59066;54.782;32.024;2022-10-31T07:32:18;3.23;72.99
43772;HTU21D;59066;54.782;32.024;2022-10-31T07:34:51;3.25;73.28
43772;HTU21D;59066;54.782;32.024;2022-10-31T07:37:27;3.33;73.17
43772;HTU21D;59066;54.782;32.024;2022-10-31T07:39:56;3.36;73.09
43772;HTU21D;59066;54.782;32.024;2022-10-31T07:42:23;3.41;72.60
43772;HTU21D;59066;54.782;32.024;2022-10-31T07:44:51;3.38;72.76
43772;HTU21D;59066;54.782;32.024;2022-10-31T07:47:41;3.39;72.40
43772;HTU21D;59066;54.782;32.024;2022-10-31T07:50:41;3.38;72.10
43772;HTU21D;59066;54.782;32.024;2022-10-31T07:53:41;3.45;72.40
43772;HTU21D;59066;54.782;32.024;2022-10-31T07:56:21;3.49;72.13
43772;HTU21D;59066;54.782;32.024;2022-10-31T07:58:49;3.53;71.75
43772;HTU21D;59066;54.782;32.024;2022-10-31T08:01:16;3.65;71.73
43772;HTU21D;59066;54.782;32.024;2022-10-31T08:03:54;3.61;71.42
43772;HTU21D;59066;54.782;32.024;2022-10-31T08:06:40;3.57;71.21
43772;HTU21D;59066;54.782;32.024;2022-10-31T08:09:30;3.62;70.74
43772;HTU21D;59066;54.782;32.024;2022-10-31T08:12:02;3.74;71.12
43772;HTU21D;59066;54.782;32.024;2022-10-31T08:14:31;3.70;70.64
43772;HTU21D;59066;54.782;32.024;2022-10-31T08:16:59;3.73;71.00
43772;HTU21D;59066;54.782;32.024;2022-10-31T08:19:36;3.78;70.32
43772;HTU21D;59066;54.782;32.024;2022-10-31T08:22:04;3.85;70.52
43772;HTU21D;59066;54.782;32.024;2022-10-31T08:24:31;3.89;70.40
43772;HTU21D;59066;54.782;32.024;2022-10-31T08:26:59;4.01;70.22
43772;HTU21D;59066;54.782;32.024;2022-10-31T08:29:26;4.16;69.96
43772;HTU21D;59066;54.782;32.024;2022-10-31T08:31:54;4.23;69.49
43772;HTU21D;59066;54.782;32.024;2022-10-31T08:34:50;4.17;69.74
43772;HTU21D;59066;54.782;32.024;2022-10-31T08:37:36;4.18;69.39
43772;HTU21D;59066;54.782;32.024;2022-10-31T08:40:05;4.24;69.57
43772;HTU21D;59066;54.782;32.024;2022-10-31T08:42:34;4.38;69.30
43772;HTU21D;59066;54.782;32.024;2022-10-31T08:45:02;4.45;68.72
43772;HTU21D;59066;54.782;32.024;2022-10-31T08:47:35;4.32;68.68
43772;HTU21D;59066;54.782;32.024;2022-10-31T08:50:04;4.37;68.91
43772;HTU21D;59066;54.782;32.024;2022-10-31T08:52:32;4.38;68.02
43772;HTU21D;59066;54.782;32.024;2022-10-31T08:55:19;4.32;68.49
43772;HTU21D;59066;54.782;32.024;2022-10-31T08:58:08;4.42;68.26
43772;HTU21D;59066;54.782;32.024;2022-10-31T09:00:43;4.56;68.83
43772;HTU21D;59066;54.782;32.024;2022-10-31T09:03:29;4.56;68.52
43772;HTU21D;59066;54.782;32.024;2022-10-31T09:05:59;4.68;68.14
43772;HTU21D;59066;54.782;32.024;2022-10-31T09:08:29;4.63;68.13
43772;HTU21D;59066;54.782;32.024;2022-10-31T09:11:04;4.62;67.70
43772;HTU21D;59066;54.782;32.024;2022-10-31T09:13:59;4.50;67.95
43772;HTU21D;59066;54.782;32.024;2022-10-31T09:16:51;4.63;67.75
43772;HTU21D;59066;54.782;32.024;2022-10-31T09:19:22;4.60;67.11
43772;HTU21D;59066;54.782;32.024;2022-10-31T09:21:53;4.57;66.65
43772;HTU21D;59066;54.782;32.024;2022-10-31T09:24:21;4.51;67.01
43772;HTU21D;59066;54.782;32.024;2022-10-31T09:26:49;4.52;67.04
43772;HTU21D;59066;54.782;32.024;2022-10-31T09:29:18;4.64;67.41
43772;HTU21D;59066;54.782;32.024;2022-10-31T09:31:52;4.61;66.75
43772;HTU21D;59066;54.782;32.024;2022-10-31T09:34:25;4.71;67.68
43772;HTU21D;59066;54.782;32.024;2022-10-31T09:37:04;4.79;67.27
43772;HTU21D;59066;54.782;32.024;2022-10-31T09:39:34;4.90;66.78
43772;HTU21D;59066;54.782;32.024;2022-10-31T09:45:08;5.18;66.81
43772;HTU21D;59066;54.782;32.024;2022-10-31T09:48:14;5.30;67.44
43772;HTU21D;59066;54.782;32.024;2022-10-31T09:51:08;5.41;66.80
43772;HTU21D;59066;54.782;32.024;2022-10-31T09:56:59;5.97;66.54
43772;HTU21D;59066;54.782;32.024;2022-10-31T09:59:34;5.90;66.75
43772;HTU21D;59066;54.782;32.024;2022-10-31T10:04:51;5.71;65.95
43772;HTU21D;59066;54.782;32.024;2022-10-31T10:24:44;6.40;68.52
43772;HTU21D;59066;54.782;32.024;2022-10-31T10:32:47;7.19;67.49
43772;HTU21D;59066;54.782;32.024;2022-10-31T10:35:30;7.22;66.76
43772;HTU21D;59066;54.782;32.024;2022-10-31T10:38:03;6.97;65.83
43772;HTU21D;59066;54.782;32.024;2022-10-31T10:40:37;6.69;64.46
43772;HTU21D;59066;54.782;32.024;2022-10-31T10:49:19;7.23;67.04
43772;HTU21D;59066;54.782;32.024;2022-10-31T10:51:58;8.67;68.94
43772;HTU21D;59066;54.782;32.024;2022-10-31T10:55:16;9.41;64.53
43772;HTU21D;59066;54.782;32.024;2022-10-31T10:58:00;9.85;68.16
43772;HTU21D;59066;54.782;32.024;2022-10-31T11:00:41;10.34;68.25
43772;HTU21D;59066;54.782;32.024;2022-10-31T11:03:10;10.80;68.68
43772;HTU21D;59066;54.782;32.024;2022-10-31T11:08:28;11.31;63.18
43772;HTU21D;59066;54.782;32.024;2022-10-31T11:13:46;12.03;63.34
43772;HTU21D;59066;54.782;32.024;2022-10-31T11:16:28;12.48;61.99
43772;HTU21D;59066;54.782;32.024;2022-10-31T11:19:07;12.57;63.35
43772;HTU21D;59066;54.782;32.024;2022-10-31T11:21:35;12.58;62.79
43772;HTU21D;59066;54.782;32.024;2022-10-31T11:26:40;12.64;62.76
43772;HTU21D;59066;54.782;32.024;2022-10-31T11:29:26;12.52;55.94
43772;HTU21D;59066;54.782;32.024;2022-10-31T11:31:56;12.88;60.25
43772;HTU21D;59066;54.782;32.024;2022-10-31T11:34:29;12.96;60.18
43772;HTU21D;59066;54.782;32.024;2022-10-31T11:37:24;13.12;60.88
43772;HTU21D;59066;54.782;32.024;2022-10-31T11:39:53;12.26;57.90
43772;HTU21D;59066;54.782;32.024;2022-10-31T11:42:23;11.48;57.18
43772;HTU21D;59066;54.782;32.024;2022-10-31T11:44:51;10.79;57.10
43772;HTU21D;59066;54.782;32.024;2022-10-31T11:47:29;10.96;57.49
43772;HTU21D;59066;54.782;32.024;2022-10-31T11:50:02;10.97;58.08
43772;HTU21D;59066;54.782;32.024;2022-10-31T11:52:36;11.02;58.86
43772;HTU21D;59066;54.782;32.024;2022-10-31T11:55:36;11.09;55.37
43772;HTU21D;59066;54.782;32.024;2022-10-31T11:58:05;11.13;57.56
43772;HTU21D;59066;54.782;32.024;2022-10-31T12:00:50;10.82;57.45
43772;HTU21D;59066;54.782;32.024;2022-10-31T12:06:00;9.89;55.20
43772;HTU21D;59066;54.782;32.024;2022-10-31T12:08:35;9.63;56.55
43772;HTU21D;59066;54.782;32.024;2022-10-31T12:11:17;9.51;56.26
43772;HTU21D;59066;54.782;32.024;2022-10-31T12:19:15;9.86;59.25
43772;HTU21D;59066;54.782;32.024;2022-10-31T12:30:22;9.84;59.54
43772;HTU21D;59066;54.782;32.024;2022-10-31T12:41:46;10.11;60.29
43772;HTU21D;59066;54.782;32.024;2022-10-31T12:44:34;10.21;56.84
43772;HTU21D;59066;54.782;32.024;2022-10-31T12:47:28;10.16;57.58
43772;HTU21D;59066;54.782;32.024;2022-10-31T13:01:45;9.46;57.86
43772;HTU21D;59066;54.782;32.024;2022-10-31T13:03:53;9.04;59.12
43772;HTU21D;59066;54.782;32.024;2022-10-31T13:06:29;8.61;57.27
43772;HTU21D;59066;54.782;32.024;2022-10-31T13:09:01;8.20;59.53
43772;HTU21D;59066;54.782;32.024;2022-10-31T13:11:43;8.02;59.10
43772;HTU21D;59066;54.782;32.024;2022-10-31T13:14:38;7.79;60.29
43772;HTU21D;59066;54.782;32.024;2022-10-31T13:17:06;7.59;59.96
43772;HTU21D;59066;54.782;32.024;2022-10-31T13:19:39;7.30;59.30
43772;HTU21D;59066;54.782;32.024;2022-10-31T13:30:44;6.86;61.63
43772;HTU21D;59066;54.782;32.024;2022-10-31T13:33:22;6.74;61.50
43772;HTU21D;59066;54.782;32.024;2022-10-31T13:41:39;6.52;62.99
43772;HTU21D;59066;54.782;32.024;2022-10-31T13:44:23;6.51;63.70
43772;HTU21D;59066;54.782;32.024;2022-10-31T13:46:52;6.44;63.88
43772;HTU21D;59066;54.782;32.024;2022-10-31T13:52:13;6.24;63.95
43772;HTU21D;59066;54.782;32.024;2022-10-31T13:54:43;6.20;64.44
43772;HTU21D;59066;54.782;32.024;2022-10-31T13:57:18;6.17;65.04
43772;HTU21D;59066;54.782;32.024;2022-10-31T13:59:52;6.12;64.97
43772;HTU21D;59066;54.782;32.024;2022-10-31T14:02:32;6.11;65.30
43772;HTU21D;59066;54.782;32.024;2022-10-31T14:07:57;6.08;65.88
43772;HTU21D;59066;54.782;32.024;2022-10-31T14:10:29;6.04;66.33
43772;HTU21D;59066;54.782;32.024;2022-10-31T14:13:34;5.94;65.86
43772;HTU21D;59066;54.782;32.024;2022-10-31T14:19:05;5.89;66.71
43772;HTU21D;59066;54.782;32.024;2022-10-31T14:21:47;5.84;67.11
43772;HTU21D;59066;54.782;32.024;2022-10-31T14:29:47;5.74;67.84
43772;HTU21D;59066;54.782;32.024;2022-10-31T14:32:22;5.71;68.26
43772;HTU21D;59066;54.782;32.024;2022-10-31T14:51:19;5.27;68.93
43772;HTU21D;59066;54.782;32.024;2022-10-31T14:53:55;5.26;69.99
43772;HTU21D;59066;54.782;32.024;2022-10-31T14:56:26;5.15;69.88
43772;HTU21D;59066;54.782;32.024;2022-10-31T14:59:01;5.11;70.17
43772;HTU21D;59066;54.782;32.024;2022-10-31T15:01:34;5.06;70.09
43772;HTU21D;59066;54.782;32.024;2022-10-31T15:04:18;4.97;70.24
43772;HTU21D;59066;54.782;32.024;2022-10-31T15:07:05;4.94;69.61
43772;HTU21D;59066;54.782;32.024;2022-10-31T15:09:35;4.94;70.76
43772;HTU21D;59066;54.782;32.024;2022-10-31T15:12:26;4.87;70.55
43772;HTU21D;59066;54.782;32.024;2022-10-31T15:14:53;4.82;70.69
43772;HTU21D;59066;54.782;32.024;2022-10-31T15:17:25;4.68;71.01
43772;HTU21D;59066;54.782;32.024;2022-10-31T15:19:53;4.63;70.75
43772;HTU21D;59066;54.782;32.024;2022-10-31T15:22:23;4.57;71.25
43772;HTU21D;59066;54.782;32.024;2022-10-31T15:24:51;4.46;71.13
43772;HTU21D;59066;54.782;32.024;2022-10-31T15:27:24;4.45;71.40
43772;HTU21D;59066;54.782;32.024;2022-10-31T15:29:54;4.45;71.53
43772;HTU21D;59066;54.782;32.024;2022-10-31T15:32:27;4.34;71.94
43772;HTU21D;59066;54.782;32.024;2022-10-31T15:34:55;4.28;71.88
43772;HTU21D;59066;54.782;32.024;2022-10-31T15:37:26;4.23;72.22
43772;HTU21D;59066;54.782;32.024;2022-10-31T15:39:53;4.22;71.82
43772;HTU21D;59066;54.782;32.024;2022-10-31T15:42:27;4.16;71.51
43772;HTU21D;59066;54.782;32.024;2022-10-31T15:47:45;4.10;72.16
43772;HTU21D;59066;54.782;32.024;2022-10-31T15:50:31;4.01;72.51
43772;HTU21D;59066;54.782;32.024;2022-10-31T15:53:00;4.05;72.50
43772;HTU21D;59066;54.782;32.024;2022-10-31T15:55:31;3.98;72.32
43772;HTU21D;59066;54.782;32.024;2022-10-31T15:58:03;3.92;72.67
43772;HTU21D;59066;54.782;32.024;2022-10-31T16:00:34;3.86;72.68
43772;HTU21D;59066;54.782;32.024;2022-10-31T16:10:57;3.68;73.22
43772;HTU21D;59066;54.782;32.024;2022-10-31T16:13:37;3.65;73.06
43772;HTU21D;59066;54.782;32.024;2022-10-31T16:16:14;3.61;73.50
43772;HTU21D;59066;54.782;32.024;2022-10-31T16:19:05;3.58;73.37
43772;HTU21D;59066;54.782;32.024;2022-10-31T16:21:37;3.53;73.59
43772;HTU21D;59066;54.782;32.024;2022-10-31T16:26:54;3.47;73.98
43772;HTU21D;59066;54.782;32.024;2022-10-31T16:29:32;3.44;72.86
43772;HTU21D;59066;54.782;32.024;2022-10-31T16:32:00;3.42;73.61
43772;HTU21D;59066;54.782;32.024;2022-10-31T16:34:27;3.38;73.45
43772;HTU21D;59066;54.782;32.024;2022-10-31T16:36:55;3.41;74.07
43772;HTU21D;59066;54.782;32.024;2022-10-31T16:39:22;3.39;73.86
43772;HTU21D;59066;54.782;32.024;2022-10-31T16:41:52;3.34;74.29
43772;HTU21D;59066;54.782;32.024;2022-10-31T16:44:25;3.35;74.15
43772;HTU21D;59066;54.782;32.024;2022-10-31T16:49:34;3.38;74.24
43772;HTU21D;59066;54.782;32.024;2022-10-31T16:52:02;3.38;74.35
43772;HTU21D;59066;54.782;32.024;2022-10-31T16:54:29;3.34;74.26
43772;HTU21D;59066;54.782;32.024;2022-10-31T16:56:58;3.31;74.08
43772;HTU21D;59066;54.782;32.024;2022-10-31T16:59:27;3.30;74.00
43772;HTU21D;59066;54.782;32.024;2022-10-31T17:01:55;3.26;74.14
43772;HTU21D;59066;54.782;32.024;2022-10-31T17:04:22;3.26;73.80
43772;HTU21D;59066;54.782;32.024;2022-10-31T17:06:51;3.27;73.65
43772;HTU21D;59066;54.782;32.024;2022-10-31T17:09:19;3.25;73.87
43772;HTU21D;59066;54.782;32.024;2022-10-31T17:11:49;3.21;74.19
43772;HTU21D;59066;54.782;32.024;2022-10-31T17:14:18;3.19;74.07
43772;HTU21D;59066;54.782;32.024;2022-10-31T17:16:45;3.23;74.15
43772;HTU21D;59066;54.782;32.024;2022-10-31T17:19:13;3.17;74.20
43772;HTU21D;59066;54.782;32.024;2022-10-31T17:21:40;3.18;74.25
43772;HTU21D;59066;54.782;32.024;2022-10-31T17:24:12;3.15;74.14
43772;HTU21D;59066;54.782;32.024;2022-10-31T17:26:40;3.12;74.02
43772;HTU21D;59066;54.782;32.024;2022-10-31T17:29:08;3.06;74.11
43772;HTU21D;59066;54.782;32.024;2022-10-31T17:31:35;3.06;74.24
43772;HTU21D;59066;54.782;32.024;2022-10-31T17:34:05;3.01;74.29
43772;HTU21D;59066;54.782;32.024;2022-10-31T17:36:33;3.02;74.41
43772;HTU21D;59066;54.782;32.024;2022-10-31T17:39:02;2.99;73.99
43772;HTU21D;59066;54.782;32.024;2022-10-31T17:41:31;2.94;74.20
43772;HTU21D;59066;54.782;32.024;2022-10-31T17:43:59;2.95;74.44
43772;HTU21D;59066;54.782;32.024;2022-10-31T17:46:26;2.87;74.22
43772;HTU21D;59066;54.782;32.024;2022-10-31T17:48:54;2.85;74.34
43772;HTU21D;59066;54.782;32.024;2022-10-31T17:51:22;2.84;74.76
43772;HTU21D;59066;54.782;32.024;2022-10-31T17:53:49;2.80;74.68
43772;HTU21D;59066;54.782;32.024;2022-10-31T17:56:17;2.83;74.86
43772;HTU21D;59066;54.782;32.024;2022-10-31T17:58:44;2.79;74.80
43772;HTU21D;59066;54.782;32.024;2022-10-31T18:01:13;2.80;74.83
43772;HTU21D;59066;54.782;32.024;2022-10-31T18:03:41;2.76;74.94
43772;HTU21D;59066;54.782;32.024;2022-10-31T18:06:09;2.75;74.99
43772;HTU21D;59066;54.782;32.024;2022-10-31T18:08:38;2.70;74.91
43772;HTU21D;59066;54.782;32.024;2022-10-31T18:11:08;2.66;74.83
43772;HTU21D;59066;54.782;32.024;2022-10-31T18:13:38;2.64;75.21
43772;HTU21D;59066;54.782;32.024;2022-10-31T18:16:07;2.60;75.37
43772;HTU21D;59066;54.782;32.024;2022-10-31T18:18:41;2.58;75.11
43772;HTU21D;59066;54.782;32.024;2022-10-31T18:21:11;2.50;75.27
43772;HTU21D;59066;54.782;32.024;2022-10-31T18:23:38;2.54;75.38
43772;HTU21D;59066;54.782;32.024;2022-10-31T18:26:05;2.52;75.32
43772;HTU21D;59066;54.782;32.024;2022-10-31T18:28:33;2.46;75.28
43772;HTU21D;59066;54.782;32.024;2022-10-31T18:31:00;2.43;75.21
43772;HTU21D;59066;54.782;32.024;2022-10-31T18:33:28;2.45;75.30
43772;HTU21D;59066;54.782;32.024;2022-10-31T18:35:55;2.42;75.47
43772;HTU21D;59066;54.782;32.024;2022-10-31T18:38:23;2.38;75.38
43772;HTU21D;59066;54.782;32.024;2022-10-31T18:40:53;2.41;75.24
43772;HTU21D;59066;54.782;32.024;2022-10-31T18:43:21;2.30;75.48
43772;HTU21D;59066;54.782;32.024;2022-10-31T18:45:48;2.29;75.60
43772;HTU21D;59066;54.782;32.024;2022-10-31T18:48:21;2.28;75.87
43772;HTU21D;59066;54.782;32.024;2022-10-31T18:50:49;2.28;75.77
43772;HTU21D;59066;54.782;32.024;2022-10-31T18:53:16;2.25;75.79
43772;HTU21D;59066;54.782;32.024;2022-10-31T18:55:44;2.24;75.89
43772;HTU21D;59066;54.782;32.024;2022-10-31T18:58:15;2.21;75.89
43772;HTU21D;59066;54.782;32.024;2022-10-31T19:00:42;2.22;75.98
43772;HTU21D;59066;54.782;32.024;2022-10-31T19:03:09;2.21;75.79